sensor_id;sensor_type;location;lat;lon;timestamp;P1;durP1;ratioP1;P2;durP2;ratioP2
16969;SDS011;8601;48.718;8.992;2022-07-29T00:00:36;6.13;;;4.60;;
16969;SDS011;8601;48.718;8.992;2022-07-29T00:03:03;5.60;;;5.00;;
16969;SDS011;8601;48.718;8.992;2022-07-29T00:05:30;5.10;;;4.60;;
16969;SDS011;8601;48.718;8.992;2022-07-29T00:07:57;5.67;;;4.30;;
16969;SDS011;8601;48.718;8.992;2022-07-29T00:10:25;4.70;;;4.30;;
16969;SDS011;8601;48.718;8.992;2022-07-29T00:12:53;4.73;;;4.23;;
16969;SDS011;8601;48.718;8.992;2022-07-29T00:15:20;4.83;;;4.00;;
16969;SDS011;8601;48.718;8.992;2022-07-29T00:17:48;4.30;;;3.90;;
16969;SDS011;8601;48.718;8.992;2022-07-29T00:20:15;4.17;;;3.77;;
16969;SDS011;8601;48.718;8.992;2022-07-29T00:22:42;4.53;;;4.13;;
16969;SDS011;8601;48.718;8.992;2022-07-29T00:25:09;4.37;;;3.97;;
16969;SDS011;8601;48.718;8.992;2022-07-29T00:27:38;4.27;;;3.87;;
16969;SDS011;8601;48.718;8.992;2022-07-29T00:30:07;4.30;;;3.67;;
16969;SDS011;8601;48.718;8.992;2022-07-29T00:32:34;4.83;;;3.67;;
16969;SDS011;8601;48.718;8.992;2022-07-29T00:35:01;4.20;;;3.87;;
16969;SDS011;8601;48.718;8.992;2022-07-29T00:37:46;4.30;;;3.90;;
16969;SDS011;8601;48.718;8.992;2022-07-29T00:40:13;5.50;;;4.50;;
16969;SDS011;8601;48.718;8.992;2022-07-29T00:42:42;5.33;;;4.80;;
16969;SDS011;8601;48.718;8.992;2022-07-29T00:45:12;4.83;;;4.33;;
16969;SDS011;8601;48.718;8.992;2022-07-29T00:47:40;4.87;;;4.47;;
16969;SDS011;8601;48.718;8.992;2022-07-29T00:50:08;5.47;;;4.67;;
16969;SDS011;8601;48.718;8.992;2022-07-29T00:52:36;6.23;;;4.10;;
16969;SDS011;8601;48.718;8.992;2022-07-29T00:55:06;5.83;;;4.87;;
16969;SDS011;8601;48.718;8.992;2022-07-29T00:57:34;4.87;;;4.37;;
16969;SDS011;8601;48.718;8.992;2022-07-29T01:00:02;5.70;;;4.37;;
16969;SDS011;8601;48.718;8.992;2022-07-29T01:02:32;4.83;;;4.40;;
16969;SDS011;8601;48.718;8.992;2022-07-29T01:04:59;4.60;;;4.20;;
16969;SDS011;8601;48.718;8.992;2022-07-29T01:07:27;4.80;;;4.40;;
16969;SDS011;8601;48.718;8.992;2022-07-29T01:09:54;4.63;;;4.13;;
16969;SDS011;8601;48.718;8.992;2022-07-29T01:12:25;6.17;;;4.60;;
16969;SDS011;8601;48.718;8.992;2022-07-29T01:14:54;4.77;;;4.37;;
16969;SDS011;8601;48.718;8.992;2022-07-29T01:17:24;5.43;;;4.93;;
16969;SDS011;8601;48.718;8.992;2022-07-29T01:19:55;5.57;;;4.47;;
16969;SDS011;8601;48.718;8.992;2022-07-29T01:22:29;5.37;;;4.47;;
16969;SDS011;8601;48.718;8.992;2022-07-29T01:25:09;5.37;;;4.87;;
16969;SDS011;8601;48.718;8.992;2022-07-29T01:28:08;5.90;;;5.30;;
16969;SDS011;8601;48.718;8.992;2022-07-29T01:30:50;6.60;;;5.13;;
16969;SDS011;8601;48.718;8.992;2022-07-29T01:33:19;5.40;;;4.30;;
16969;SDS011;8601;48.718;8.992;2022-07-29T01:36:07;6.20;;;4.77;;
16969;SDS011;8601;48.718;8.992;2022-07-29T01:38:38;5.20;;;4.57;;
16969;SDS011;8601;48.718;8.992;2022-07-29T01:41:08;5.53;;;5.03;;
16969;SDS011;8601;48.718;8.992;2022-07-29T01:43:38;5.70;;;5.20;;
16969;SDS011;8601;48.718;8.992;2022-07-29T01:46:11;6.37;;;5.10;;
16969;SDS011;8601;48.718;8.992;2022-07-29T01:48:45;5.57;;;4.90;;
16969;SDS011;8601;48.718;8.992;2022-07-29T01:51:14;5.40;;;4.90;;
16969;SDS011;8601;48.718;8.992;2022-07-29T01:53:46;4.90;;;4.50;;
16969;SDS011;8601;48.718;8.992;2022-07-29T01:56:18;5.53;;;4.97;;
16969;SDS011;8601;48.718;8.992;2022-07-29T01:58:47;5.23;;;4.73;;
16969;SDS011;8601;48.718;8.992;2022-07-29T02:01:19;5.63;;;5.13;;
16969;SDS011;8601;48.718;8.992;2022-07-29T02:03:48;5.20;;;4.70;;
16969;SDS011;8601;48.718;8.992;2022-07-29T02:06:17;5.00;;;4.60;;
16969;SDS011;8601;48.718;8.992;2022-07-29T02:08:47;4.87;;;4.47;;
16969;SDS011;8601;48.718;8.992;2022-07-29T02:11:16;4.90;;;3.93;;
16969;SDS011;8601;48.718;8.992;2022-07-29T02:13:43;5.07;;;4.00;;
16969;SDS011;8601;48.718;8.992;2022-07-29T02:16:11;4.33;;;4.00;;
16969;SDS011;8601;48.718;8.992;2022-07-29T02:18:41;4.77;;;4.27;;
16969;SDS011;8601;48.718;8.992;2022-07-29T02:21:11;3.73;;;3.43;;
16969;SDS011;8601;48.718;8.992;2022-07-29T02:23:44;4.27;;;3.83;;
16969;SDS011;8601;48.718;8.992;2022-07-29T02:26:12;4.53;;;3.60;;
16969;SDS011;8601;48.718;8.992;2022-07-29T02:28:40;3.83;;;3.53;;
16969;SDS011;8601;48.718;8.992;2022-07-29T02:31:08;4.00;;;3.60;;
16969;SDS011;8601;48.718;8.992;2022-07-29T02:33:36;3.80;;;3.50;;
16969;SDS011;8601;48.718;8.992;2022-07-29T02:36:08;4.10;;;3.67;;
16969;SDS011;8601;48.718;8.992;2022-07-29T02:38:35;4.80;;;3.87;;
16969;SDS011;8601;48.718;8.992;2022-07-29T02:41:23;4.37;;;3.90;;
16969;SDS011;8601;48.718;8.992;2022-07-29T02:43:54;4.17;;;3.77;;
16969;SDS011;8601;48.718;8.992;2022-07-29T02:46:26;4.70;;;4.10;;
16969;SDS011;8601;48.718;8.992;2022-07-29T02:48:58;5.27;;;4.87;;
16969;SDS011;8601;48.718;8.992;2022-07-29T02:51:32;5.90;;;4.90;;
16969;SDS011;8601;48.718;8.992;2022-07-29T02:54:06;5.90;;;4.93;;
16969;SDS011;8601;48.718;8.992;2022-07-29T02:56:35;5.97;;;5.33;;
16969;SDS011;8601;48.718;8.992;2022-07-29T02:59:06;5.97;;;5.37;;
16969;SDS011;8601;48.718;8.992;2022-07-29T03:01:38;6.93;;;6.23;;
16969;SDS011;8601;48.718;8.992;2022-07-29T03:04:09;6.30;;;5.80;;
16969;SDS011;8601;48.718;8.992;2022-07-29T03:06:39;7.00;;;6.40;;
16969;SDS011;8601;48.718;8.992;2022-07-29T03:09:08;7.10;;;6.40;;
16969;SDS011;8601;48.718;8.992;2022-07-29T03:11:38;6.93;;;6.37;;
16969;SDS011;8601;48.718;8.992;2022-07-29T03:14:05;7.67;;;6.70;;
16969;SDS011;8601;48.718;8.992;2022-07-29T03:16:33;7.83;;;7.13;;
16969;SDS011;8601;48.718;8.992;2022-07-29T03:19:03;8.13;;;7.43;;
16969;SDS011;8601;48.718;8.992;2022-07-29T03:21:31;7.63;;;6.87;;
16969;SDS011;8601;48.718;8.992;2022-07-29T03:24:01;8.53;;;7.73;;
16969;SDS011;8601;48.718;8.992;2022-07-29T03:26:28;8.67;;;7.47;;
16969;SDS011;8601;48.718;8.992;2022-07-29T03:28:56;7.50;;;6.80;;
16969;SDS011;8601;48.718;8.992;2022-07-29T03:31:23;8.47;;;7.67;;
16969;SDS011;8601;48.718;8.992;2022-07-29T03:33:49;8.23;;;7.43;;
16969;SDS011;8601;48.718;8.992;2022-07-29T03:36:16;7.43;;;6.67;;
16969;SDS011;8601;48.718;8.992;2022-07-29T03:38:44;8.17;;;7.43;;
16969;SDS011;8601;48.718;8.992;2022-07-29T03:41:14;8.57;;;7.67;;
16969;SDS011;8601;48.718;8.992;2022-07-29T03:43:43;7.37;;;6.77;;
16969;SDS011;8601;48.718;8.992;2022-07-29T03:46:12;7.50;;;6.80;;
16969;SDS011;8601;48.718;8.992;2022-07-29T03:48:42;7.00;;;6.40;;
16969;SDS011;8601;48.718;8.992;2022-07-29T03:51:14;6.87;;;6.20;;
16969;SDS011;8601;48.718;8.992;2022-07-29T03:53:42;6.27;;;5.67;;
16969;SDS011;8601;48.718;8.992;2022-07-29T03:56:09;7.70;;;6.30;;
16969;SDS011;8601;48.718;8.992;2022-07-29T03:58:43;6.37;;;5.50;;
16969;SDS011;8601;48.718;8.992;2022-07-29T04:01:10;7.40;;;5.83;;
16969;SDS011;8601;48.718;8.992;2022-07-29T04:03:39;6.10;;;4.97;;
16969;SDS011;8601;48.718;8.992;2022-07-29T04:06:06;6.50;;;5.60;;
16969;SDS011;8601;48.718;8.992;2022-07-29T04:08:33;6.47;;;5.87;;
16969;SDS011;8601;48.718;8.992;2022-07-29T04:11:01;6.00;;;5.43;;
16969;SDS011;8601;48.718;8.992;2022-07-29T04:13:28;5.50;;;5.00;;
16969;SDS011;8601;48.718;8.992;2022-07-29T04:15:57;5.97;;;5.47;;
16969;SDS011;8601;48.718;8.992;2022-07-29T04:18:24;5.73;;;5.00;;
16969;SDS011;8601;48.718;8.992;2022-07-29T04:20:51;6.10;;;4.87;;
16969;SDS011;8601;48.718;8.992;2022-07-29T04:23:18;4.87;;;4.47;;
16969;SDS011;8601;48.718;8.992;2022-07-29T04:25:45;4.27;;;3.83;;
16969;SDS011;8601;48.718;8.992;2022-07-29T04:28:12;4.53;;;4.00;;
16969;SDS011;8601;48.718;8.992;2022-07-29T04:30:40;4.40;;;4.03;;
16969;SDS011;8601;48.718;8.992;2022-07-29T04:33:09;3.83;;;3.53;;
16969;SDS011;8601;48.718;8.992;2022-07-29T04:35:37;4.27;;;3.63;;
16969;SDS011;8601;48.718;8.992;2022-07-29T04:38:04;6.97;;;3.80;;
16969;SDS011;8601;48.718;8.992;2022-07-29T04:40:32;4.87;;;3.40;;
16969;SDS011;8601;48.718;8.992;2022-07-29T04:42:59;4.00;;;3.60;;
16969;SDS011;8601;48.718;8.992;2022-07-29T04:45:27;3.60;;;3.30;;
16969;SDS011;8601;48.718;8.992;2022-07-29T04:47:53;3.63;;;3.33;;
16969;SDS011;8601;48.718;8.992;2022-07-29T04:50:22;3.47;;;3.17;;
16969;SDS011;8601;48.718;8.992;2022-07-29T04:52:49;4.47;;;3.90;;
16969;SDS011;8601;48.718;8.992;2022-07-29T04:55:16;3.40;;;3.10;;
16969;SDS011;8601;48.718;8.992;2022-07-29T04:57:43;3.90;;;3.40;;
16969;SDS011;8601;48.718;8.992;2022-07-29T05:00:10;4.73;;;3.43;;
16969;SDS011;8601;48.718;8.992;2022-07-29T05:02:38;4.80;;;3.90;;
16969;SDS011;8601;48.718;8.992;2022-07-29T05:05:05;3.70;;;3.40;;
16969;SDS011;8601;48.718;8.992;2022-07-29T05:07:34;4.07;;;3.70;;
16969;SDS011;8601;48.718;8.992;2022-07-29T05:10:02;4.80;;;4.10;;
16969;SDS011;8601;48.718;8.992;2022-07-29T05:12:29;3.87;;;3.57;;
16969;SDS011;8601;48.718;8.992;2022-07-29T05:14:56;4.37;;;4.03;;
16969;SDS011;8601;48.718;8.992;2022-07-29T05:17:24;6.80;;;4.47;;
16969;SDS011;8601;48.718;8.992;2022-07-29T05:19:51;4.47;;;4.07;;
16969;SDS011;8601;48.718;8.992;2022-07-29T05:22:18;4.93;;;4.43;;
16969;SDS011;8601;48.718;8.992;2022-07-29T05:24:47;4.93;;;4.53;;
16969;SDS011;8601;48.718;8.992;2022-07-29T05:27:13;5.10;;;4.70;;
16969;SDS011;8601;48.718;8.992;2022-07-29T05:29:41;5.80;;;4.57;;
16969;SDS011;8601;48.718;8.992;2022-07-29T05:32:08;5.60;;;5.07;;
16969;SDS011;8601;48.718;8.992;2022-07-29T05:34:35;5.53;;;5.03;;
16969;SDS011;8601;48.718;8.992;2022-07-29T05:37:02;5.73;;;4.93;;
16969;SDS011;8601;48.718;8.992;2022-07-29T05:39:28;6.13;;;5.47;;
16969;SDS011;8601;48.718;8.992;2022-07-29T05:41:57;6.33;;;5.07;;
16969;SDS011;8601;48.718;8.992;2022-07-29T05:44:24;6.83;;;4.63;;
16969;SDS011;8601;48.718;8.992;2022-07-29T05:46:51;5.57;;;4.87;;
16969;SDS011;8601;48.718;8.992;2022-07-29T05:49:18;5.33;;;4.10;;
16969;SDS011;8601;48.718;8.992;2022-07-29T05:51:45;4.73;;;4.30;;
16969;SDS011;8601;48.718;8.992;2022-07-29T05:54:13;4.53;;;4.13;;
16969;SDS011;8601;48.718;8.992;2022-07-29T05:56:40;6.20;;;4.60;;
16969;SDS011;8601;48.718;8.992;2022-07-29T05:59:09;4.83;;;4.03;;
16969;SDS011;8601;48.718;8.992;2022-07-29T06:01:36;5.30;;;4.80;;
16969;SDS011;8601;48.718;8.992;2022-07-29T06:04:04;4.60;;;4.20;;
16969;SDS011;8601;48.718;8.992;2022-07-29T06:06:32;4.70;;;4.30;;
16969;SDS011;8601;48.718;8.992;2022-07-29T06:09:00;4.60;;;4.17;;
16969;SDS011;8601;48.718;8.992;2022-07-29T06:11:27;4.07;;;3.77;;
16969;SDS011;8601;48.718;8.992;2022-07-29T06:13:55;6.40;;;4.50;;
16969;SDS011;8601;48.718;8.992;2022-07-29T06:16:23;4.90;;;4.00;;
16969;SDS011;8601;48.718;8.992;2022-07-29T06:18:50;4.17;;;3.77;;
16969;SDS011;8601;48.718;8.992;2022-07-29T06:21:17;5.70;;;4.00;;
16969;SDS011;8601;48.718;8.992;2022-07-29T06:23:44;5.13;;;3.70;;
16969;SDS011;8601;48.718;8.992;2022-07-29T06:26:11;6.53;;;4.33;;
16969;SDS011;8601;48.718;8.992;2022-07-29T06:28:38;5.37;;;4.40;;
16969;SDS011;8601;48.718;8.992;2022-07-29T06:31:05;5.40;;;4.50;;
16969;SDS011;8601;48.718;8.992;2022-07-29T06:33:34;6.07;;;4.40;;
16969;SDS011;8601;48.718;8.992;2022-07-29T06:36:03;5.13;;;3.90;;
16969;SDS011;8601;48.718;8.992;2022-07-29T06:38:30;4.80;;;4.20;;
16969;SDS011;8601;48.718;8.992;2022-07-29T06:40:57;5.07;;;4.53;;
16969;SDS011;8601;48.718;8.992;2022-07-29T06:43:28;4.33;;;3.93;;
16969;SDS011;8601;48.718;8.992;2022-07-29T06:45:57;5.53;;;4.33;;
16969;SDS011;8601;48.718;8.992;2022-07-29T06:48:26;8.67;;;5.00;;
16969;SDS011;8601;48.718;8.992;2022-07-29T06:50:54;4.60;;;4.20;;
16969;SDS011;8601;48.718;8.992;2022-07-29T06:53:22;6.87;;;4.53;;
16969;SDS011;8601;48.718;8.992;2022-07-29T06:55:49;6.40;;;4.80;;
16969;SDS011;8601;48.718;8.992;2022-07-29T06:58:17;5.40;;;4.70;;
16969;SDS011;8601;48.718;8.992;2022-07-29T07:00:45;6.07;;;4.50;;
16969;SDS011;8601;48.718;8.992;2022-07-29T07:03:13;4.80;;;4.37;;
16969;SDS011;8601;48.718;8.992;2022-07-29T07:05:40;5.03;;;4.53;;
16969;SDS011;8601;48.718;8.992;2022-07-29T07:08:08;5.23;;;4.73;;
16969;SDS011;8601;48.718;8.992;2022-07-29T07:10:35;5.00;;;4.60;;
16969;SDS011;8601;48.718;8.992;2022-07-29T07:13:02;5.20;;;4.70;;
16969;SDS011;8601;48.718;8.992;2022-07-29T07:15:30;5.50;;;5.00;;
16969;SDS011;8601;48.718;8.992;2022-07-29T07:17:58;5.03;;;4.53;;
16969;SDS011;8601;48.718;8.992;2022-07-29T07:20:25;5.07;;;4.40;;
16969;SDS011;8601;48.718;8.992;2022-07-29T07:22:51;6.40;;;4.80;;
16969;SDS011;8601;48.718;8.992;2022-07-29T07:25:20;6.20;;;4.90;;
16969;SDS011;8601;48.718;8.992;2022-07-29T07:27:47;6.37;;;4.87;;
16969;SDS011;8601;48.718;8.992;2022-07-29T07:30:14;5.17;;;4.50;;
16969;SDS011;8601;48.718;8.992;2022-07-29T07:32:41;7.47;;;4.60;;
16969;SDS011;8601;48.718;8.992;2022-07-29T07:35:08;7.73;;;4.80;;
16969;SDS011;8601;48.718;8.992;2022-07-29T07:37:36;5.37;;;4.40;;
16969;SDS011;8601;48.718;8.992;2022-07-29T07:40:05;6.00;;;4.40;;
16969;SDS011;8601;48.718;8.992;2022-07-29T07:42:34;4.47;;;4.07;;
16969;SDS011;8601;48.718;8.992;2022-07-29T07:45:01;6.43;;;4.40;;
16969;SDS011;8601;48.718;8.992;2022-07-29T07:47:29;4.83;;;4.40;;
16969;SDS011;8601;48.718;8.992;2022-07-29T07:49:56;5.23;;;4.37;;
16969;SDS011;8601;48.718;8.992;2022-07-29T07:52:23;5.03;;;4.47;;
16969;SDS011;8601;48.718;8.992;2022-07-29T07:54:50;4.77;;;4.23;;
16969;SDS011;8601;48.718;8.992;2022-07-29T07:57:18;6.20;;;3.87;;
16969;SDS011;8601;48.718;8.992;2022-07-29T07:59:46;5.77;;;4.10;;
16969;SDS011;8601;48.718;8.992;2022-07-29T08:02:13;5.53;;;4.57;;
16969;SDS011;8601;48.718;8.992;2022-07-29T08:04:40;4.50;;;4.10;;
16969;SDS011;8601;48.718;8.992;2022-07-29T08:07:08;4.80;;;4.40;;
16969;SDS011;8601;48.718;8.992;2022-07-29T08:09:35;4.40;;;4.00;;
16969;SDS011;8601;48.718;8.992;2022-07-29T08:12:03;5.07;;;3.90;;
16969;SDS011;8601;48.718;8.992;2022-07-29T08:14:31;5.00;;;4.20;;
16969;SDS011;8601;48.718;8.992;2022-07-29T08:17:00;4.20;;;3.80;;
16969;SDS011;8601;48.718;8.992;2022-07-29T08:19:27;4.50;;;3.67;;
16969;SDS011;8601;48.718;8.992;2022-07-29T08:21:54;4.63;;;3.87;;
16969;SDS011;8601;48.718;8.992;2022-07-29T08:24:21;5.27;;;4.03;;
16969;SDS011;8601;48.718;8.992;2022-07-29T08:27:06;9.33;;;4.47;;
16969;SDS011;8601;48.718;8.992;2022-07-29T08:29:33;4.80;;;4.37;;
16969;SDS011;8601;48.718;8.992;2022-07-29T08:32:02;4.87;;;4.10;;
16969;SDS011;8601;48.718;8.992;2022-07-29T08:34:30;4.77;;;4.10;;
16969;SDS011;8601;48.718;8.992;2022-07-29T08:36:57;9.17;;;4.03;;
16969;SDS011;8601;48.718;8.992;2022-07-29T08:39:24;4.27;;;3.87;;
16969;SDS011;8601;48.718;8.992;2022-07-29T08:41:51;7.27;;;4.53;;
16969;SDS011;8601;48.718;8.992;2022-07-29T08:44:20;7.20;;;4.37;;
16969;SDS011;8601;48.718;8.992;2022-07-29T08:46:47;5.30;;;3.83;;
16969;SDS011;8601;48.718;8.992;2022-07-29T08:49:16;5.87;;;3.90;;
16969;SDS011;8601;48.718;8.992;2022-07-29T08:51:43;4.47;;;3.27;;
16969;SDS011;8601;48.718;8.992;2022-07-29T08:54:11;6.20;;;3.43;;
16969;SDS011;8601;48.718;8.992;2022-07-29T08:56:42;4.73;;;3.60;;
16969;SDS011;8601;48.718;8.992;2022-07-29T08:59:09;4.80;;;3.50;;
16969;SDS011;8601;48.718;8.992;2022-07-29T09:01:37;4.30;;;3.90;;
16969;SDS011;8601;48.718;8.992;2022-07-29T09:04:08;7.33;;;3.20;;
16969;SDS011;8601;48.718;8.992;2022-07-29T09:06:39;4.10;;;3.33;;
16969;SDS011;8601;48.718;8.992;2022-07-29T09:09:09;5.03;;;3.33;;
16969;SDS011;8601;48.718;8.992;2022-07-29T09:11:36;3.57;;;2.97;;
16969;SDS011;8601;48.718;8.992;2022-07-29T09:14:04;4.63;;;3.33;;
16969;SDS011;8601;48.718;8.992;2022-07-29T09:19:23;4.00;;;3.58;;
16969;SDS011;8601;48.718;8.992;2022-07-29T09:21:55;3.47;;;3.17;;
16969;SDS011;8601;48.718;8.992;2022-07-29T09:24:24;5.35;;;3.10;;
16969;SDS011;8601;48.718;8.992;2022-07-29T09:27:06;4.25;;;3.20;;
16969;SDS011;8601;48.718;8.992;2022-07-29T09:29:43;5.07;;;3.10;;
16969;SDS011;8601;48.718;8.992;2022-07-29T09:32:10;3.53;;;3.22;;
16969;SDS011;8601;48.718;8.992;2022-07-29T09:34:37;4.63;;;3.50;;
16969;SDS011;8601;48.718;8.992;2022-07-29T09:37:06;3.53;;;3.20;;
16969;SDS011;8601;48.718;8.992;2022-07-29T09:39:34;5.05;;;3.00;;
16969;SDS011;8601;48.718;8.992;2022-07-29T09:42:03;4.10;;;3.00;;
16969;SDS011;8601;48.718;8.992;2022-07-29T09:44:41;4.70;;;3.22;;
16969;SDS011;8601;48.718;8.992;2022-07-29T09:47:13;4.57;;;3.08;;
16969;SDS011;8601;48.718;8.992;2022-07-29T09:49:53;3.80;;;2.85;;
16969;SDS011;8601;48.718;8.992;2022-07-29T09:52:24;6.70;;;3.40;;
16969;SDS011;8601;48.718;8.992;2022-07-29T09:54:52;3.88;;;3.13;;
16969;SDS011;8601;48.718;8.992;2022-07-29T09:57:24;5.78;;;3.53;;
16969;SDS011;8601;48.718;8.992;2022-07-29T09:59:56;5.93;;;3.55;;
16969;SDS011;8601;48.718;8.992;2022-07-29T10:02:28;4.65;;;3.28;;
16969;SDS011;8601;48.718;8.992;2022-07-29T10:04:56;5.20;;;2.95;;
16969;SDS011;8601;48.718;8.992;2022-07-29T10:07:26;5.10;;;2.80;;
16969;SDS011;8601;48.718;8.992;2022-07-29T10:10:08;4.65;;;3.00;;
16969;SDS011;8601;48.718;8.992;2022-07-29T10:12:38;4.38;;;3.20;;
16969;SDS011;8601;48.718;8.992;2022-07-29T10:15:15;4.30;;;3.03;;
16969;SDS011;8601;48.718;8.992;2022-07-29T10:17:43;3.85;;;3.17;;
16969;SDS011;8601;48.718;8.992;2022-07-29T10:20:11;5.10;;;3.13;;
16969;SDS011;8601;48.718;8.992;2022-07-29T10:22:40;5.30;;;3.42;;
16969;SDS011;8601;48.718;8.992;2022-07-29T10:25:09;4.93;;;3.70;;
16969;SDS011;8601;48.718;8.992;2022-07-29T10:27:36;7.50;;;3.88;;
16969;SDS011;8601;48.718;8.992;2022-07-29T10:30:04;9.45;;;4.97;;
16969;SDS011;8601;48.718;8.992;2022-07-29T10:32:39;10.00;;;5.90;;
16969;SDS011;8601;48.718;8.992;2022-07-29T10:35:24;18.47;;;7.60;;
16969;SDS011;8601;48.718;8.992;2022-07-29T10:41:02;22.83;;;9.17;;
16969;SDS011;8601;48.718;8.992;2022-07-29T10:43:55;21.83;;;9.67;;
16969;SDS011;8601;48.718;8.992;2022-07-29T10:46:25;12.53;;;8.00;;
16969;SDS011;8601;48.718;8.992;2022-07-29T10:51:57;8.60;;;7.13;;
16969;SDS011;8601;48.718;8.992;2022-07-29T10:54:48;13.27;;;8.40;;
16969;SDS011;8601;48.718;8.992;2022-07-29T10:57:21;12.63;;;8.90;;
16969;SDS011;8601;48.718;8.992;2022-07-29T10:59:52;13.83;;;8.57;;
16969;SDS011;8601;48.718;8.992;2022-07-29T11:02:58;11.03;;;7.77;;
16969;SDS011;8601;48.718;8.992;2022-07-29T11:05:26;9.73;;;8.10;;
16969;SDS011;8601;48.718;8.992;2022-07-29T11:13:59;8.70;;;7.57;;
16969;SDS011;8601;48.718;8.992;2022-07-29T11:16:31;8.53;;;7.67;;
16969;SDS011;8601;48.718;8.992;2022-07-29T11:19:28;8.57;;;6.53;;
16969;SDS011;8601;48.718;8.992;2022-07-29T11:21:56;10.50;;;7.83;;
16969;SDS011;8601;48.718;8.992;2022-07-29T11:24:24;9.30;;;7.37;;
16969;SDS011;8601;48.718;8.992;2022-07-29T11:29:48;6.80;;;5.90;;
16969;SDS011;8601;48.718;8.992;2022-07-29T11:32:18;9.13;;;6.90;;
16969;SDS011;8601;48.718;8.992;2022-07-29T11:34:46;6.80;;;5.90;;
16969;SDS011;8601;48.718;8.992;2022-07-29T11:37:20;8.03;;;6.60;;
16969;SDS011;8601;48.718;8.992;2022-07-29T11:42:49;7.17;;;5.90;;
16969;SDS011;8601;48.718;8.992;2022-07-29T11:45:17;7.17;;;6.47;;
16969;SDS011;8601;48.718;8.992;2022-07-29T11:47:54;7.83;;;7.10;;
16969;SDS011;8601;48.718;8.992;2022-07-29T11:50:31;9.23;;;7.30;;
16969;SDS011;8601;48.718;8.992;2022-07-29T11:53:00;11.63;;;7.57;;
16969;SDS011;8601;48.718;8.992;2022-07-29T11:55:28;9.00;;;6.90;;
16969;SDS011;8601;48.718;8.992;2022-07-29T11:58:00;6.93;;;5.97;;
16969;SDS011;8601;48.718;8.992;2022-07-29T12:00:29;8.70;;;6.73;;
16969;SDS011;8601;48.718;8.992;2022-07-29T12:03:02;8.27;;;7.27;;
16969;SDS011;8601;48.718;8.992;2022-07-29T12:05:33;7.77;;;6.50;;
16969;SDS011;8601;48.718;8.992;2022-07-29T12:08:08;8.83;;;7.47;;
16969;SDS011;8601;48.718;8.992;2022-07-29T12:10:37;10.30;;;8.07;;
16969;SDS011;8601;48.718;8.992;2022-07-29T12:13:05;9.90;;;8.23;;
16969;SDS011;8601;48.718;8.992;2022-07-29T12:15:32;8.97;;;7.77;;
16969;SDS011;8601;48.718;8.992;2022-07-29T12:18:10;8.60;;;7.50;;
16969;SDS011;8601;48.718;8.992;2022-07-29T12:20:39;9.27;;;7.40;;
16969;SDS011;8601;48.718;8.992;2022-07-29T12:23:06;11.33;;;8.07;;
16969;SDS011;8601;48.718;8.992;2022-07-29T12:25:36;9.83;;;7.60;;
16969;SDS011;8601;48.718;8.992;2022-07-29T12:28:04;7.97;;;7.27;;
16969;SDS011;8601;48.718;8.992;2022-07-29T12:30:37;8.40;;;7.60;;
16969;SDS011;8601;48.718;8.992;2022-07-29T12:33:18;9.40;;;7.43;;
16969;SDS011;8601;48.718;8.992;2022-07-29T12:35:47;8.63;;;7.83;;
16969;SDS011;8601;48.718;8.992;2022-07-29T12:38:15;9.63;;;8.63;;
16969;SDS011;8601;48.718;8.992;2022-07-29T12:40:43;8.87;;;8.07;;
16969;SDS011;8601;48.718;8.992;2022-07-29T12:43:12;8.60;;;7.83;;
16969;SDS011;8601;48.718;8.992;2022-07-29T12:45:41;9.87;;;8.30;;
16969;SDS011;8601;48.718;8.992;2022-07-29T12:48:10;10.37;;;9.37;;
16969;SDS011;8601;48.718;8.992;2022-07-29T12:50:52;9.97;;;8.80;;
16969;SDS011;8601;48.718;8.992;2022-07-29T12:53:23;9.57;;;8.67;;
16969;SDS011;8601;48.718;8.992;2022-07-29T12:55:51;9.63;;;8.73;;
16969;SDS011;8601;48.718;8.992;2022-07-29T12:58:26;9.77;;;8.77;;
16969;SDS011;8601;48.718;8.992;2022-07-29T13:03:47;9.77;;;8.77;;
16969;SDS011;8601;48.718;8.992;2022-07-29T13:06:34;7.87;;;7.17;;
16969;SDS011;8601;48.718;8.992;2022-07-29T13:09:04;6.67;;;5.73;;
16969;SDS011;8601;48.718;8.992;2022-07-29T13:11:33;6.97;;;6.37;;
16969;SDS011;8601;48.718;8.992;2022-07-29T13:14:01;7.23;;;6.17;;
16969;SDS011;8601;48.718;8.992;2022-07-29T13:16:29;6.97;;;6.30;;
16969;SDS011;8601;48.718;8.992;2022-07-29T13:19:05;9.73;;;6.73;;
16969;SDS011;8601;48.718;8.992;2022-07-29T13:21:36;7.37;;;6.67;;
16969;SDS011;8601;48.718;8.992;2022-07-29T13:24:04;10.10;;;6.53;;
16969;SDS011;8601;48.718;8.992;2022-07-29T13:26:32;7.37;;;6.77;;
16969;SDS011;8601;48.718;8.992;2022-07-29T13:28:59;7.80;;;6.63;;
16969;SDS011;8601;48.718;8.992;2022-07-29T13:31:26;8.10;;;7.30;;
16969;SDS011;8601;48.718;8.992;2022-07-29T13:33:54;8.87;;;8.07;;
16969;SDS011;8601;48.718;8.992;2022-07-29T13:36:21;9.27;;;8.47;;
16969;SDS011;8601;48.718;8.992;2022-07-29T13:38:49;9.30;;;7.70;;
16969;SDS011;8601;48.718;8.992;2022-07-29T13:41:16;8.60;;;7.80;;
16969;SDS011;8601;48.718;8.992;2022-07-29T13:43:43;9.10;;;8.30;;
16969;SDS011;8601;48.718;8.992;2022-07-29T13:46:10;7.97;;;7.27;;
16969;SDS011;8601;48.718;8.992;2022-07-29T13:48:38;8.70;;;7.80;;
16969;SDS011;8601;48.718;8.992;2022-07-29T13:51:04;8.70;;;7.83;;
16969;SDS011;8601;48.718;8.992;2022-07-29T13:53:31;10.27;;;7.13;;
16969;SDS011;8601;48.718;8.992;2022-07-29T13:56:01;9.67;;;7.83;;
16969;SDS011;8601;48.718;8.992;2022-07-29T13:58:30;9.00;;;8.27;;
16969;SDS011;8601;48.718;8.992;2022-07-29T14:00:57;8.73;;;7.93;;
16969;SDS011;8601;48.718;8.992;2022-07-29T14:03:25;8.37;;;7.57;;
16969;SDS011;8601;48.718;8.992;2022-07-29T14:05:52;8.17;;;6.83;;
16969;SDS011;8601;48.718;8.992;2022-07-29T14:08:20;8.80;;;6.70;;
16969;SDS011;8601;48.718;8.992;2022-07-29T14:10:47;9.87;;;7.73;;
16969;SDS011;8601;48.718;8.992;2022-07-29T14:13:15;8.77;;;7.87;;
16969;SDS011;8601;48.718;8.992;2022-07-29T14:15:42;9.20;;;7.80;;
16969;SDS011;8601;48.718;8.992;2022-07-29T14:18:09;9.00;;;8.13;;
16969;SDS011;8601;48.718;8.992;2022-07-29T14:20:36;9.27;;;8.30;;
16969;SDS011;8601;48.718;8.992;2022-07-29T14:23:03;10.30;;;9.30;;
16969;SDS011;8601;48.718;8.992;2022-07-29T14:25:30;9.53;;;8.57;;
16969;SDS011;8601;48.718;8.992;2022-07-29T14:27:57;10.30;;;9.43;;
16969;SDS011;8601;48.718;8.992;2022-07-29T14:30:26;11.80;;;10.53;;
16969;SDS011;8601;48.718;8.992;2022-07-29T14:32:53;11.30;;;10.20;;
16969;SDS011;8601;48.718;8.992;2022-07-29T14:35:20;11.23;;;10.20;;
16969;SDS011;8601;48.718;8.992;2022-07-29T14:37:47;11.73;;;10.60;;
16969;SDS011;8601;48.718;8.992;2022-07-29T14:40:14;12.23;;;10.53;;
16969;SDS011;8601;48.718;8.992;2022-07-29T14:42:41;10.50;;;9.50;;
16969;SDS011;8601;48.718;8.992;2022-07-29T14:45:09;11.57;;;10.63;;
16969;SDS011;8601;48.718;8.992;2022-07-29T14:47:37;11.87;;;10.10;;
16969;SDS011;8601;48.718;8.992;2022-07-29T14:50:05;11.47;;;9.70;;
16969;SDS011;8601;48.718;8.992;2022-07-29T14:52:33;10.37;;;9.40;;
16969;SDS011;8601;48.718;8.992;2022-07-29T14:55:00;8.97;;;8.07;;
16969;SDS011;8601;48.718;8.992;2022-07-29T14:57:27;11.97;;;10.87;;
16969;SDS011;8601;48.718;8.992;2022-07-29T14:59:54;12.27;;;11.13;;
16969;SDS011;8601;48.718;8.992;2022-07-29T15:02:22;9.53;;;8.23;;
16969;SDS011;8601;48.718;8.992;2022-07-29T15:04:50;8.20;;;7.27;;
16969;SDS011;8601;48.718;8.992;2022-07-29T15:07:17;8.43;;;7.63;;
16969;SDS011;8601;48.718;8.992;2022-07-29T15:09:44;8.93;;;8.07;;
16969;SDS011;8601;48.718;8.992;2022-07-29T15:12:11;12.80;;;9.63;;
16969;SDS011;8601;48.718;8.992;2022-07-29T15:14:38;9.63;;;8.73;;
16969;SDS011;8601;48.718;8.992;2022-07-29T15:17:05;9.97;;;9.03;;
16969;SDS011;8601;48.718;8.992;2022-07-29T15:19:32;9.97;;;8.97;;
16969;SDS011;8601;48.718;8.992;2022-07-29T15:22:00;13.03;;;10.20;;
16969;SDS011;8601;48.718;8.992;2022-07-29T15:24:29;12.80;;;9.70;;
16969;SDS011;8601;48.718;8.992;2022-07-29T15:26:56;10.10;;;9.10;;
16969;SDS011;8601;48.718;8.992;2022-07-29T15:29:24;9.20;;;8.30;;
16969;SDS011;8601;48.718;8.992;2022-07-29T15:31:51;7.87;;;6.80;;
16969;SDS011;8601;48.718;8.992;2022-07-29T15:34:18;8.20;;;6.80;;
16969;SDS011;8601;48.718;8.992;2022-07-29T15:36:48;8.10;;;6.47;;